sensor_id;sensor_type;location;lat;lon;timestamp;pressure;altitude;pressure_sealevel;temperature;humidity
16595;BME280;8410;52.532;13.336;2023-12-20T00:02:28;100459.53;;;13.73;72.90
16595;BME280;8410;52.532;13.336;2023-12-20T00:04:56;100455.59;;;14.48;71.83
16595;BME280;8410;52.532;13.336;2023-12-20T00:07:23;100445.81;;;14.82;71.14
16595;BME280;8410;52.532;13.336;2023-12-20T00:09:51;100446.50;;;15.01;69.99
16595;BME280;8410;52.532;13.336;2023-12-20T00:12:18;100446.84;;;14.66;71.23
16595;BME280;8410;52.532;13.336;2023-12-20T00:14:46;100435.81;;;15.29;69.82
16595;BME280;8410;52.532;13.336;2023-12-20T00:17:13;100432.84;;;15.58;69.22
16595;BME280;8410;52.532;13.336;2023-12-20T00:19:42;100433.84;;;14.69;71.01
16595;BME280;8410;52.532;13.336;2023-12-20T00:22:10;100431.78;;;15.74;68.31
16595;BME280;8410;52.532;13.336;2023-12-20T00:24:37;100433.72;;;15.58;68.70
16595;BME280;8410;52.532;13.336;2023-12-20T00:27:05;100429.84;;;15.92;67.45
16595;BME280;8410;52.532;13.336;2023-12-20T00:29:33;100425.88;;;14.89;68.37
16595;BME280;8410;52.532;13.336;2023-12-20T00:32:00;100422.19;;;15.11;68.29
16595;BME280;8410;52.532;13.336;2023-12-20T00:34:28;100427.03;;;15.39;69.48
16595;BME280;8410;52.532;13.336;2023-12-20T00:36:56;100408.50;;;15.68;68.64
16595;BME280;8410;52.532;13.336;2023-12-20T00:39:24;100422.69;;;15.42;68.92
16595;BME280;8410;52.532;13.336;2023-12-20T00:41:52;100426.19;;;15.40;68.63
16595;BME280;8410;52.532;13.336;2023-12-20T00:44:19;100419.56;;;15.14;67.66
16595;BME280;8410;52.532;13.336;2023-12-20T00:46:46;100428.31;;;14.04;72.36
16595;BME280;8410;52.532;13.336;2023-12-20T00:49:14;100419.78;;;14.94;72.30
16595;BME280;8410;52.532;13.336;2023-12-20T00:51:42;100420.72;;;14.86;71.33
16595;BME280;8410;52.532;13.336;2023-12-20T00:54:11;100417.44;;;14.68;69.09
16595;BME280;8410;52.532;13.336;2023-12-20T00:56:38;100415.84;;;14.52;71.74
16595;BME280;8410;52.532;13.336;2023-12-20T00:59:06;100424.53;;;14.45;73.05
16595;BME280;8410;52.532;13.336;2023-12-20T01:01:33;100424.22;;;14.82;71.40
16595;BME280;8410;52.532;13.336;2023-12-20T01:04:01;100425.28;;;15.42;68.79
16595;BME280;8410;52.532;13.336;2023-12-20T01:06:28;100426.91;;;14.74;70.25
16595;BME280;8410;52.532;13.336;2023-12-20T01:08:56;100417.13;;;14.99;69.92
16595;BME280;8410;52.532;13.336;2023-12-20T01:11:25;100422.69;;;15.42;68.91
16595;BME280;8410;52.532;13.336;2023-12-20T01:13:52;100423.28;;;14.92;69.49
16595;BME280;8410;52.532;13.336;2023-12-20T01:16:20;100433.91;;;15.43;70.45
16595;BME280;8410;52.532;13.336;2023-12-20T01:18:47;100431.47;;;14.40;70.42
16595;BME280;8410;52.532;13.336;2023-12-20T01:21:15;100433.06;;;15.39;71.23
16595;BME280;8410;52.532;13.336;2023-12-20T01:23:43;100423.94;;;15.80;69.35
16595;BME280;8410;52.532;13.336;2023-12-20T01:26:10;100426.53;;;15.80;68.33
16595;BME280;8410;52.532;13.336;2023-12-20T01:28:39;100423.69;;;15.32;70.31
16595;BME280;8410;52.532;13.336;2023-12-20T01:31:07;100429.44;;;15.53;70.56
16595;BME280;8410;52.532;13.336;2023-12-20T01:33:35;100425.09;;;15.56;69.58
16595;BME280;8410;52.532;13.336;2023-12-20T01:36:03;100425.38;;;15.35;70.67
16595;BME280;8410;52.532;13.336;2023-12-20T01:38:31;100427.47;;;15.75;69.15
16595;BME280;8410;52.532;13.336;2023-12-20T01:40:58;100423.81;;;15.20;69.14
16595;BME280;8410;52.532;13.336;2023-12-20T01:43:26;100424.78;;;15.11;69.54
16595;BME280;8410;52.532;13.336;2023-12-20T01:45:59;100419.47;;;15.20;70.21
16595;BME280;8410;52.532;13.336;2023-12-20T01:48:27;100425.25;;;14.64;71.79
16595;BME280;8410;52.532;13.336;2023-12-20T01:50:55;100422.81;;;14.47;72.18
16595;BME280;8410;52.532;13.336;2023-12-20T01:53:25;100426.47;;;14.18;73.54
16595;BME280;8410;52.532;13.336;2023-12-20T01:55:54;100425.16;;;14.74;71.95
16595;BME280;8410;52.532;13.336;2023-12-20T01:58:22;100426.25;;;14.49;72.08
16595;BME280;8410;52.532;13.336;2023-12-20T02:00:50;100431.75;;;14.03;73.03
16595;BME280;8410;52.532;13.336;2023-12-20T02:03:20;100426.09;;;13.32;75.94
16595;BME280;8410;52.532;13.336;2023-12-20T02:05:48;100421.00;;;13.01;77.73
16595;BME280;8410;52.532;13.336;2023-12-20T02:08:15;100425.38;;;12.73;76.21
16595;BME280;8410;52.532;13.336;2023-12-20T02:10:43;100418.41;;;13.02;78.35
16595;BME280;8410;52.532;13.336;2023-12-20T02:13:11;100405.56;;;12.69;76.05
16595;BME280;8410;52.532;13.336;2023-12-20T02:15:38;100408.88;;;13.21;75.15
16595;BME280;8410;52.532;13.336;2023-12-20T02:18:08;100414.72;;;13.65;75.10
16595;BME280;8410;52.532;13.336;2023-12-20T02:20:37;100404.09;;;14.14;73.18
16595;BME280;8410;52.532;13.336;2023-12-20T02:23:07;100409.28;;;14.08;71.42
16595;BME280;8410;52.532;13.336;2023-12-20T02:25:34;100395.16;;;14.49;72.22
16595;BME280;8410;52.532;13.336;2023-12-20T02:28:02;100403.91;;;14.32;72.00
16595;BME280;8410;52.532;13.336;2023-12-20T02:30:31;100403.94;;;14.29;71.66
16595;BME280;8410;52.532;13.336;2023-12-20T02:32:59;100405.09;;;13.87;73.06
16595;BME280;8410;52.532;13.336;2023-12-20T02:35:27;100420.22;;;14.45;73.11
16595;BME280;8410;52.532;13.336;2023-12-20T02:37:54;100412.59;;;14.28;72.11
16595;BME280;8410;52.532;13.336;2023-12-20T02:40:23;100407.06;;;13.51;73.10
16595;BME280;8410;52.532;13.336;2023-12-20T02:42:51;100398.19;;;13.94;74.30
16595;BME280;8410;52.532;13.336;2023-12-20T02:45:18;100406.00;;;13.87;73.49
16595;BME280;8410;52.532;13.336;2023-12-20T02:47:46;100399.13;;;13.80;74.23
16595;BME280;8410;52.532;13.336;2023-12-20T02:50:14;100405.28;;;13.58;74.01
16595;BME280;8410;52.532;13.336;2023-12-20T02:52:44;100408.66;;;13.71;74.45
16595;BME280;8410;52.532;13.336;2023-12-20T02:55:12;100406.81;;;13.89;74.04
16595;BME280;8410;52.532;13.336;2023-12-20T02:57:41;100413.75;;;13.87;73.97
16595;BME280;8410;52.532;13.336;2023-12-20T03:00:10;100412.97;;;13.73;74.49
16595;BME280;8410;52.532;13.336;2023-12-20T03:02:37;100408.09;;;12.90;75.09
16595;BME280;8410;52.532;13.336;2023-12-20T03:05:06;100416.75;;;12.68;77.74
16595;BME280;8410;52.532;13.336;2023-12-20T03:07:33;100413.31;;;12.69;76.86
16595;BME280;8410;52.532;13.336;2023-12-20T03:10:01;100414.97;;;13.00;75.34
16595;BME280;8410;52.532;13.336;2023-12-20T03:12:46;100432.19;;;11.82;78.76
16595;BME280;8410;52.532;13.336;2023-12-20T03:15:14;100433.88;;;11.77;79.41
16595;BME280;8410;52.532;13.336;2023-12-20T03:17:42;100430.41;;;11.65;80.28
16595;BME280;8410;52.532;13.336;2023-12-20T03:20:10;100426.06;;;11.44;80.46
16595;BME280;8410;52.532;13.336;2023-12-20T03:22:37;100432.25;;;12.00;79.66
16595;BME280;8410;52.532;13.336;2023-12-20T03:25:06;100437.28;;;11.66;78.17
16595;BME280;8410;52.532;13.336;2023-12-20T03:27:33;100435.66;;;11.90;78.39
16595;BME280;8410;52.532;13.336;2023-12-20T03:30:03;100432.06;;;11.51;80.30
16595;BME280;8410;52.532;13.336;2023-12-20T03:32:31;100434.47;;;11.10;82.45
16595;BME280;8410;52.532;13.336;2023-12-20T03:34:58;100432.06;;;11.42;81.75
16595;BME280;8410;52.532;13.336;2023-12-20T03:37:26;100432.13;;;11.63;80.92
16595;BME280;8410;52.532;13.336;2023-12-20T03:39:53;100426.91;;;11.51;80.91
16595;BME280;8410;52.532;13.336;2023-12-20T03:42:21;100435.59;;;11.75;79.38
16595;BME280;8410;52.532;13.336;2023-12-20T03:44:48;100428.59;;;11.37;80.61
16595;BME280;8410;52.532;13.336;2023-12-20T03:47:17;100419.09;;;11.23;81.40
16595;BME280;8410;52.532;13.336;2023-12-20T03:49:45;100425.34;;;11.99;78.58
16595;BME280;8410;52.532;13.336;2023-12-20T03:52:13;100418.38;;;11.64;79.85
16595;BME280;8410;52.532;13.336;2023-12-20T03:54:40;100424.38;;;11.63;79.54
16595;BME280;8410;52.532;13.336;2023-12-20T03:57:09;100418.34;;;11.55;79.56
16595;BME280;8410;52.532;13.336;2023-12-20T03:59:36;100417.59;;;11.91;77.94
16595;BME280;8410;52.532;13.336;2023-12-20T04:02:04;100421.88;;;11.85;77.53
16595;BME280;8410;52.532;13.336;2023-12-20T04:04:33;100414.97;;;11.82;78.58
16595;BME280;8410;52.532;13.336;2023-12-20T04:07:01;100414.06;;;11.60;78.00
16595;BME280;8410;52.532;13.336;2023-12-20T04:09:28;100411.50;;;11.66;77.97
16595;BME280;8410;52.532;13.336;2023-12-20T04:11:56;100395.16;;;11.67;78.33
16595;BME280;8410;52.532;13.336;2023-12-20T04:14:23;100400.28;;;11.51;77.44
16595;BME280;8410;52.532;13.336;2023-12-20T04:16:52;100400.41;;;11.89;77.14
16595;BME280;8410;52.532;13.336;2023-12-20T04:19:19;100400.41;;;11.90;77.09
16595;BME280;8410;52.532;13.336;2023-12-20T04:21:48;100392.59;;;11.70;75.74
16595;BME280;8410;52.532;13.336;2023-12-20T04:24:16;100392.69;;;12.01;75.13
16595;BME280;8410;52.532;13.336;2023-12-20T04:26:43;100394.34;;;11.78;75.89
16595;BME280;8410;52.532;13.336;2023-12-20T04:29:10;100393.53;;;12.16;74.79
16595;BME280;8410;52.532;13.336;2023-12-20T04:31:38;100373.75;;;12.48;74.67
16595;BME280;8410;52.532;13.336;2023-12-20T04:34:06;100379.75;;;12.43;72.38
16595;BME280;8410;52.532;13.336;2023-12-20T04:36:33;100385.59;;;13.23;71.25
16595;BME280;8410;52.532;13.336;2023-12-20T04:39:02;100389.88;;;13.36;70.55
16595;BME280;8410;52.532;13.336;2023-12-20T04:41:30;100395.06;;;13.22;70.25
16595;BME280;8410;52.532;13.336;2023-12-20T04:43:57;100394.22;;;13.22;71.00
16595;BME280;8410;52.532;13.336;2023-12-20T04:46:25;100392.63;;;12.75;72.05
16595;BME280;8410;52.532;13.336;2023-12-20T04:48:52;100391.81;;;12.45;72.76
16595;BME280;8410;52.532;13.336;2023-12-20T04:51:20;100389.25;;;12.54;73.12
16595;BME280;8410;52.532;13.336;2023-12-20T04:53:47;100390.13;;;12.41;72.08
16595;BME280;8410;52.532;13.336;2023-12-20T04:56:16;100377.13;;;12.72;72.41
16595;BME280;8410;52.532;13.336;2023-12-20T04:58:43;100379.72;;;12.79;71.72
16595;BME280;8410;52.532;13.336;2023-12-20T05:01:11;100384.75;;;13.21;70.93
16595;BME280;8410;52.532;13.336;2023-12-20T05:03:39;100383.00;;;13.35;69.61
16595;BME280;8410;52.532;13.336;2023-12-20T05:06:07;100390.91;;;12.83;70.44
16595;BME280;8410;52.532;13.336;2023-12-20T05:08:34;100392.53;;;13.18;70.91
16595;BME280;8410;52.532;13.336;2023-12-20T05:11:02;100395.19;;;12.83;72.20
16595;BME280;8410;52.532;13.336;2023-12-20T05:13:31;100385.63;;;13.26;68.59
16595;BME280;8410;52.532;13.336;2023-12-20T05:16:10;100389.84;;;13.45;69.64
16595;BME280;8410;52.532;13.336;2023-12-20T05:18:37;100390.81;;;13.11;70.76
16595;BME280;8410;52.532;13.336;2023-12-20T05:21:05;100398.53;;;13.24;70.10
16595;BME280;8410;52.532;13.336;2023-12-20T05:23:33;100403.00;;;12.63;69.83
16595;BME280;8410;52.532;13.336;2023-12-20T05:26:01;100401.16;;;13.11;70.28
16595;BME280;8410;52.532;13.336;2023-12-20T05:28:28;100410.75;;;12.26;71.03
16595;BME280;8410;52.532;13.336;2023-12-20T05:30:57;100400.41;;;12.78;70.59
16595;BME280;8410;52.532;13.336;2023-12-20T05:33:25;100394.38;;;12.61;70.91
16595;BME280;8410;52.532;13.336;2023-12-20T05:35:53;100385.75;;;12.75;69.76
16595;BME280;8410;52.532;13.336;2023-12-20T05:38:20;100389.25;;;12.33;70.04
16595;BME280;8410;52.532;13.336;2023-12-20T05:40:48;100402.81;;;11.31;74.71
16595;BME280;8410;52.532;13.336;2023-12-20T05:43:15;100394.38;;;12.67;71.56
16595;BME280;8410;52.532;13.336;2023-12-20T05:45:43;100397.84;;;12.56;70.89
16595;BME280;8410;52.532;13.336;2023-12-20T05:48:12;100382.34;;;12.47;70.04
16595;BME280;8410;52.532;13.336;2023-12-20T05:50:39;100381.44;;;12.82;69.78
16595;BME280;8410;52.532;13.336;2023-12-20T05:53:07;100383.22;;;12.08;70.62
16595;BME280;8410;52.532;13.336;2023-12-20T05:55:34;100387.47;;;11.74;72.55
16595;BME280;8410;52.532;13.336;2023-12-20T05:58:02;100394.31;;;11.68;72.18
16595;BME280;8410;52.532;13.336;2023-12-20T06:00:29;100397.56;;;11.12;72.19
16595;BME280;8410;52.532;13.336;2023-12-20T06:02:57;100380.50;;;11.42;74.31
16595;BME280;8410;52.532;13.336;2023-12-20T06:05:26;100380.50;;;11.42;73.15
16595;BME280;8410;52.532;13.336;2023-12-20T06:07:53;100379.59;;;11.32;72.91
16595;BME280;8410;52.532;13.336;2023-12-20T06:10:23;100375.47;;;12.19;71.55
16595;BME280;8410;52.532;13.336;2023-12-20T06:12:50;100370.25;;;11.73;72.75
16595;BME280;8410;52.532;13.336;2023-12-20T06:15:18;100372.03;;;12.33;70.18
16595;BME280;8410;52.532;13.336;2023-12-20T06:17:46;100375.41;;;11.60;72.66
16595;BME280;8410;52.532;13.336;2023-12-20T06:20:15;100369.47;;;11.90;72.79
16595;BME280;8410;52.532;13.336;2023-12-20T06:22:44;100362.56;;;12.29;71.26
16595;BME280;8410;52.532;13.336;2023-12-20T06:25:12;100369.41;;;11.72;69.34
16595;BME280;8410;52.532;13.336;2023-12-20T06:27:39;100376.34;;;11.99;72.63
16595;BME280;8410;52.532;13.336;2023-12-20T06:30:08;100385.72;;;11.66;71.73
16595;BME280;8410;52.532;13.336;2023-12-20T06:32:36;100388.91;;;11.01;75.06
16595;BME280;8410;52.532;13.336;2023-12-20T06:35:06;100384.00;;;11.78;72.23
16595;BME280;8410;52.532;13.336;2023-12-20T06:37:34;100380.63;;;12.49;70.55
16595;BME280;8410;52.532;13.336;2023-12-20T06:40:04;100375.41;;;12.86;68.89
16595;BME280;8410;52.532;13.336;2023-12-20T06:42:41;100381.50;;;12.07;71.27
16595;BME280;8410;52.532;13.336;2023-12-20T06:45:24;100366.03;;;12.36;70.39
16595;BME280;8410;52.532;13.336;2023-12-20T06:47:52;100359.91;;;12.77;69.67
16595;BME280;8410;52.532;13.336;2023-12-20T06:50:21;100374.53;;;11.64;72.03
16595;BME280;8410;52.532;13.336;2023-12-20T06:52:48;100383.88;;;11.27;72.48
16595;BME280;8410;52.532;13.336;2023-12-20T06:55:16;100381.41;;;11.55;72.35
16595;BME280;8410;52.532;13.336;2023-12-20T06:57:44;100366.88;;;11.95;72.06
16595;BME280;8410;52.532;13.336;2023-12-20T07:00:13;100366.88;;;11.87;72.88
16595;BME280;8410;52.532;13.336;2023-12-20T07:02:40;100357.31;;;11.42;74.44
16595;BME280;8410;52.532;13.336;2023-12-20T07:05:08;100364.06;;;11.14;74.10
16595;BME280;8410;52.532;13.336;2023-12-20T07:07:35;100361.66;;;11.75;72.85
16595;BME280;8410;52.532;13.336;2023-12-20T07:10:04;100370.25;;;11.73;71.99
16595;BME280;8410;52.532;13.336;2023-12-20T07:12:33;100368.59;;;11.90;70.77
16595;BME280;8410;52.532;13.336;2023-12-20T07:15:00;100365.16;;;11.94;73.29
16595;BME280;8410;52.532;13.336;2023-12-20T07:17:28;100361.47;;;11.09;73.54
16595;BME280;8410;52.532;13.336;2023-12-20T07:19:56;100365.28;;;10.27;75.64
16595;BME280;8410;52.532;13.336;2023-12-20T07:22:24;100363.13;;;10.98;73.94
16595;BME280;8410;52.532;13.336;2023-12-20T07:24:51;100357.34;;;11.60;72.90
16595;BME280;8410;52.532;13.336;2023-12-20T07:27:21;100363.38;;;11.81;74.27
16595;BME280;8410;52.532;13.336;2023-12-20T07:29:50;100354.84;;;12.28;70.74
16595;BME280;8410;52.532;13.336;2023-12-20T07:32:17;100356.44;;;11.49;72.81
16595;BME280;8410;52.532;13.336;2023-12-20T07:34:45;100358.28;;;12.05;69.82
16595;BME280;8410;52.532;13.336;2023-12-20T07:37:13;100350.56;;;12.22;71.57
16595;BME280;8410;52.532;13.336;2023-12-20T07:39:41;100346.22;;;12.10;70.83
16595;BME280;8410;52.532;13.336;2023-12-20T07:42:08;100347.03;;;12.63;69.69
16595;BME280;8410;52.532;13.336;2023-12-20T07:44:36;100345.13;;;13.14;68.74
16595;BME280;8410;52.532;13.336;2023-12-20T07:47:05;100335.81;;;12.69;68.25
16595;BME280;8410;52.532;13.336;2023-12-20T07:49:33;100338.38;;;12.84;68.94
16595;BME280;8410;52.532;13.336;2023-12-20T07:52:00;100342.63;;;12.97;68.17
16595;BME280;8410;52.532;13.336;2023-12-20T07:54:28;100332.47;;;12.14;71.27
16595;BME280;8410;52.532;13.336;2023-12-20T07:56:56;100343.66;;;12.10;69.77
16595;BME280;8410;52.532;13.336;2023-12-20T07:59:24;100345.34;;;11.65;71.26
16595;BME280;8410;52.532;13.336;2023-12-20T08:01:58;100335.88;;;12.56;71.31
16595;BME280;8410;52.532;13.336;2023-12-20T08:04:28;100335.59;;;13.33;67.11
16595;BME280;8410;52.532;13.336;2023-12-20T08:06:55;100341.59;;;13.38;67.38
16595;BME280;8410;52.532;13.336;2023-12-20T08:09:23;100339.31;;;12.55;67.76
16595;BME280;8410;52.532;13.336;2023-12-20T08:11:50;100337.47;;;12.94;68.48
16595;BME280;8410;52.532;13.336;2023-12-20T08:14:18;100353.06;;;11.81;71.00
16595;BME280;8410;52.532;13.336;2023-12-20T08:16:45;100351.31;;;11.55;72.04
16595;BME280;8410;52.532;13.336;2023-12-20T08:19:13;100356.50;;;11.81;71.17
16595;BME280;8410;52.532;13.336;2023-12-20T08:21:42;100359.00;;;11.35;71.72
16595;BME280;8410;52.532;13.336;2023-12-20T08:24:10;100355.66;;;11.85;71.19
16595;BME280;8410;52.532;13.336;2023-12-20T08:26:37;100355.63;;;11.67;73.52
16595;BME280;8410;52.532;13.336;2023-12-20T08:29:04;100364.97;;;11.30;74.54
16595;BME280;8410;52.532;13.336;2023-12-20T08:31:32;100356.56;;;12.10;70.49
16595;BME280;8410;52.532;13.336;2023-12-20T08:34:00;100344.50;;;11.85;70.91
16595;BME280;8410;52.532;13.336;2023-12-20T08:36:30;100341.06;;;12.32;69.79
16595;BME280;8410;52.532;13.336;2023-12-20T08:38:59;100327.19;;;12.82;68.39
16595;BME280;8410;52.532;13.336;2023-12-20T08:41:28;100330.69;;;12.63;67.86
16595;BME280;8410;52.532;13.336;2023-12-20T08:43:55;100329.78;;;12.84;70.88
16595;BME280;8410;52.532;13.336;2023-12-20T08:46:23;100317.00;;;12.25;70.01
16595;BME280;8410;52.532;13.336;2023-12-20T08:48:50;100317.00;;;12.05;71.50
16595;BME280;8410;52.532;13.336;2023-12-20T08:51:18;100315.31;;;11.95;71.41
16595;BME280;8410;52.532;13.336;2023-12-20T08:53:45;100314.31;;;12.71;68.21
16595;BME280;8410;52.532;13.336;2023-12-20T08:56:15;100316.97;;;12.24;68.84
16595;BME280;8410;52.532;13.336;2023-12-20T08:58:45;100327.22;;;12.67;69.89
16595;BME280;8410;52.532;13.336;2023-12-20T09:01:13;100323.00;;;12.03;69.98
16595;BME280;8410;52.532;13.336;2023-12-20T09:03:40;100333.22;;;11.34;74.29
16595;BME280;8410;52.532;13.336;2023-12-20T09:06:08;100317.00;;;12.05;71.62
16595;BME280;8410;52.532;13.336;2023-12-20T09:08:36;100312.56;;;12.75;68.33
16595;BME280;8410;52.532;13.336;2023-12-20T09:11:03;100314.31;;;12.67;69.73
16595;BME280;8410;52.532;13.336;2023-12-20T09:13:33;100316.13;;;12.23;69.97
16595;BME280;8410;52.532;13.336;2023-12-20T09:16:00;100313.44;;;11.30;72.21
16595;BME280;8410;52.532;13.336;2023-12-20T09:18:28;100316.97;;;11.72;71.83
16595;BME280;8410;52.532;13.336;2023-12-20T09:20:55;100298.06;;;12.19;70.12
16595;BME280;8410;52.532;13.336;2023-12-20T09:23:23;100303.22;;;12.28;70.52
16595;BME280;8410;52.532;13.336;2023-12-20T09:25:51;100304.78;;;12.87;68.06
16595;BME280;8410;52.532;13.336;2023-12-20T09:28:23;100305.81;;;12.28;70.30
16595;BME280;8410;52.532;13.336;2023-12-20T09:30:52;100303.19;;;12.37;70.90
16595;BME280;8410;52.532;13.336;2023-12-20T09:33:19;100303.25;;;12.22;69.70
16595;BME280;8410;52.532;13.336;2023-12-20T09:35:47;100308.22;;;11.08;73.81
16595;BME280;8410;52.532;13.336;2023-12-20T09:38:15;100291.19;;;11.78;71.48
16595;BME280;8410;52.532;13.336;2023-12-20T09:40:44;100290.19;;;12.75;68.64
16595;BME280;8410;52.532;13.336;2023-12-20T09:43:14;100296.38;;;11.93;70.69
16595;BME280;8410;52.532;13.336;2023-12-20T09:45:44;100302.94;;;10.73;73.15
16595;BME280;8410;52.532;13.336;2023-12-20T09:48:16;100305.66;;;11.14;73.15
16595;BME280;8410;52.532;13.336;2023-12-20T09:50:45;100293.75;;;11.85;71.72
16595;BME280;8410;52.532;13.336;2023-12-20T09:53:19;100303.16;;;11.36;73.14
16595;BME280;8410;52.532;13.336;2023-12-20T09:55:47;100288.63;;;11.96;71.21
16595;BME280;8410;52.532;13.336;2023-12-20T09:58:15;100279.72;;;13.01;67.75
16595;BME280;8410;52.532;13.336;2023-12-20T10:00:43;100291.16;;;12.39;68.07
16595;BME280;8410;52.532;13.336;2023-12-20T10:03:10;100277.16;;;12.98;67.68
16595;BME280;8410;52.532;13.336;2023-12-20T10:05:43;100277.06;;;13.18;67.62
16595;BME280;8410;52.532;13.336;2023-12-20T10:08:11;100267.25;;;13.71;64.90
16595;BME280;8410;52.532;13.336;2023-12-20T10:10:39;100269.22;;;13.38;65.84
16595;BME280;8410;52.532;13.336;2023-12-20T10:13:14;100260.28;;;11.87;68.72
16595;BME280;8410;52.532;13.336;2023-12-20T10:15:42;100265.34;;;11.44;70.68
16595;BME280;8410;52.532;13.336;2023-12-20T10:18:12;100255.94;;;12.15;69.18
16595;BME280;8410;52.532;13.336;2023-12-20T10:20:41;100258.41;;;12.50;68.27
16595;BME280;8410;52.532;13.336;2023-12-20T10:23:10;100248.22;;;11.95;68.78
16595;BME280;8410;52.532;13.336;2023-12-20T10:25:39;100249.44;;;13.34;66.12
16595;BME280;8410;52.532;13.336;2023-12-20T10:28:09;100240.03;;;13.15;68.18
16595;BME280;8410;52.532;13.336;2023-12-20T10:30:37;100235.78;;;13.01;67.31
16595;BME280;8410;52.532;13.336;2023-12-20T10:33:08;100232.72;;;13.74;64.94
16595;BME280;8410;52.532;13.336;2023-12-20T10:35:38;100233.59;;;11.99;69.26
16595;BME280;8410;52.532;13.336;2023-12-20T10:38:12;100224.94;;;12.35;67.13
16595;BME280;8410;52.532;13.336;2023-12-20T10:40:40;100215.25;;;12.83;66.73
16595;BME280;8410;52.532;13.336;2023-12-20T10:43:09;100214.16;;;13.27;65.55
16595;BME280;8410;52.532;13.336;2023-12-20T10:45:38;100213.41;;;13.00;66.54
16595;BME280;8410;52.532;13.336;2023-12-20T10:48:07;100211.97;;;12.44;69.22
16595;BME280;8410;52.532;13.336;2023-12-20T10:50:36;100200.53;;;12.96;66.05
16595;BME280;8410;52.532;13.336;2023-12-20T10:53:05;100193.47;;;13.27;65.94
16595;BME280;8410;52.532;13.336;2023-12-20T10:55:35;100195.28;;;13.13;66.17
16595;BME280;8410;52.532;13.336;2023-12-20T10:58:08;100180.41;;;13.45;64.01
16595;BME280;8410;52.532;13.336;2023-12-20T11:00:39;100187.41;;;13.25;65.72
16595;BME280;8410;52.532;13.336;2023-12-20T11:03:09;100175.69;;;12.73;68.63
16595;BME280;8410;52.532;13.336;2023-12-20T11:05:41;100174.28;;;13.54;65.91
16595;BME280;8410;52.532;13.336;2023-12-20T11:08:20;100164.94;;;13.36;65.76
16595;BME280;8410;52.532;13.336;2023-12-20T11:10:59;100160.81;;;14.08;63.94
16595;BME280;8410;52.532;13.336;2023-12-20T11:13:31;100158.56;;;13.77;64.66
16595;BME280;8410;52.532;13.336;2023-12-20T11:16:00;100158.22;;;13.09;65.42
16595;BME280;8410;52.532;13.336;2023-12-20T11:18:29;100162.81;;;12.64;67.46
16595;BME280;8410;52.532;13.336;2023-12-20T11:21:00;100136.56;;;13.32;67.92
16595;BME280;8410;52.532;13.336;2023-12-20T11:23:29;100140.59;;;12.29;68.14
16595;BME280;8410;52.532;13.336;2023-12-20T11:25:58;100130.63;;;13.16;67.36
16595;BME280;8410;52.532;13.336;2023-12-20T11:28:26;100127.06;;;13.32;67.24
16595;BME280;8410;52.532;13.336;2023-12-20T11:30:57;100122.28;;;12.83;69.20
16595;BME280;8410;52.532;13.336;2023-12-20T11:33:27;100121.00;;;13.38;66.74
16595;BME280;8410;52.532;13.336;2023-12-20T11:35:57;100120.06;;;13.43;64.90
16595;BME280;8410;52.532;13.336;2023-12-20T11:38:26;100120.44;;;12.97;66.74
16595;BME280;8410;52.532;13.336;2023-12-20T11:40:54;100113.88;;;12.46;68.12
16595;BME280;8410;52.532;13.336;2023-12-20T11:43:31;100092.16;;;12.74;68.75
16595;BME280;8410;52.532;13.336;2023-12-20T11:46:03;100088.63;;;12.88;69.08
16595;BME280;8410;52.532;13.336;2023-12-20T11:48:31;100100.16;;;12.36;70.45
16595;BME280;8410;52.532;13.336;2023-12-20T11:50:59;100087.25;;;12.36;69.49
16595;BME280;8410;52.532;13.336;2023-12-20T11:53:27;100087.63;;;13.06;68.04
16595;BME280;8410;52.532;13.336;2023-12-20T11:55:54;100077.22;;;13.16;68.66
16595;BME280;8410;52.532;13.336;2023-12-20T11:58:22;100078.28;;;12.92;66.83
16595;BME280;8410;52.532;13.336;2023-12-20T12:00:51;100060.13;;;12.98;67.80
16595;BME280;8410;52.532;13.336;2023-12-20T12:03:19;100047.31;;;12.89;68.00
16595;BME280;8410;52.532;13.336;2023-12-20T12:05:47;100041.03;;;13.15;68.03
16595;BME280;8410;52.532;13.336;2023-12-20T12:08:15;100038.16;;;13.49;68.11
16595;BME280;8410;52.532;13.336;2023-12-20T12:10:44;100040.56;;;12.67;68.91
16595;BME280;8410;52.532;13.336;2023-12-20T12:13:12;100022.78;;;14.09;65.84
16595;BME280;8410;52.532;13.336;2023-12-20T12:15:40;100020.72;;;12.75;68.42
16595;BME280;8410;52.532;13.336;2023-12-20T12:18:11;100021.38;;;12.98;67.84
16595;BME280;8410;52.532;13.336;2023-12-20T12:20:38;100013.22;;;13.41;66.00
16595;BME280;8410;52.532;13.336;2023-12-20T12:23:06;100013.13;;;13.51;66.92
16595;BME280;8410;52.532;13.336;2023-12-20T12:25:35;99996.09;;;13.34;67.13
16595;BME280;8410;52.532;13.336;2023-12-20T12:28:08;100004.00;;;13.16;68.75
16595;BME280;8410;52.532;13.336;2023-12-20T12:30:36;100000.03;;;13.63;66.00
16595;BME280;8410;52.532;13.336;2023-12-20T12:33:13;99995.16;;;13.40;67.07
16595;BME280;8410;52.532;13.336;2023-12-20T12:35:40;99998.00;;;13.11;68.68
16595;BME280;8410;52.532;13.336;2023-12-20T12:38:08;99995.75;;;13.62;67.30
16595;BME280;8410;52.532;13.336;2023-12-20T12:40:36;100001.13;;;12.48;71.20
16595;BME280;8410;52.532;13.336;2023-12-20T12:43:03;99982.78;;;12.83;69.86
16595;BME280;8410;52.532;13.336;2023-12-20T12:45:32;99961.81;;;13.88;67.19
16595;BME280;8410;52.532;13.336;2023-12-20T12:48:00;99970.84;;;12.70;70.12
16595;BME280;8410;52.532;13.336;2023-12-20T12:50:30;99967.72;;;12.28;72.04
16595;BME280;8410;52.532;13.336;2023-12-20T12:52:58;99969.59;;;12.00;72.42
16595;BME280;8410;52.532;13.336;2023-12-20T12:55:25;99975.19;;;12.63;70.30
16595;BME280;8410;52.532;13.336;2023-12-20T12:57:53;99960.34;;;12.87;71.16